Time;durP1;ratioP1;P1;durP2;ratioP2;P2;SDS_P1;SDS_P2;PMS_P1;PMS_P2;Temp;Humidity;BMP_temperature;BMP_pressure;BME280_temperature;BME280_humidity;BME280_pressure;Samples;Min_cycle;Max_cycle;Signal;HPM_P1;HPM_P2
2021/12/16 00:02:36;;;;;;;;;;;;;;;8.36;100.00;103440.69;5004863;28;19972;-75
2021/12/16 00:06:38;;;;;;;;;;;;;;;8.34;100.00;103440.53;5001902;28;19961;-75
2021/12/16 00:08:16;;;;;;;;;;;;;;;8.35;100.00;103436.31;5001132;28;20442;-75
2021/12/16 00:10:52;;;;;;;;;;;;;;;8.34;100.00;103437.09;5004152;28;19936;-75
2021/12/16 00:34:45;;;;;;;;;;;;;;;8.26;100.00;103438.19;5003675;28;19925;-75
2021/12/16 00:37:10;;;;;;;;;;;;;;;8.27;100.00;103447.66;4998302;28;19926;-74
2021/12/16 00:39:37;;;;;;;;;;;;;;;8.28;100.00;103442.63;4995174;28;19929;-74
2021/12/16 00:42:09;;;;;;;;;;;;;;;8.29;100.00;103453.78;5001600;28;19921;-75
2021/12/16 00:47:35;;;;;;;;;;;;;;;8.25;100.00;103447.53;4997133;28;19933;-75
2021/12/16 00:58:11;;;;;;;;;;;;;;;8.26;100.00;103443.31;4997500;28;19944;-74
2021/12/16 01:00:37;;;;;;;;;;;;;;;8.25;100.00;103432.16;5002530;28;20352;-74
2021/12/16 01:06:40;;;;;;;;;;;;;;;8.27;100.00;103439.97;5004569;28;20015;-75
2021/12/16 01:55:20;;;;;;;;;;;;;;;8.25;100.00;103486.00;4988649;28;20037;-75
2021/12/16 01:57:51;;;;;;;;;;;;;;;8.24;100.00;103488.41;4998610;28;19944;-75
2021/12/16 02:00:27;;;;;;;;;;;;;;;8.25;100.00;103487.63;5002855;28;19921;-74
2021/12/16 02:02:59;;;;;;;;;;;;;;;8.24;100.00;103490.97;4998399;28;19924;-74
2021/12/16 02:10:39;;;;;;;;;;;;;;;8.22;100.00;103492.53;4999813;28;19937;-75
2021/12/16 02:37:20;;;;;;;;;;;;;;;8.12;100.00;103501.13;5005428;28;20435;-75
2021/12/16 02:39:45;;;;;;;;;;;;;;;8.12;100.00;103503.69;5006737;28;19925;-75
2021/12/16 02:42:17;;;;;;;;;;;;;;;8.11;100.00;103507.03;5004992;28;19952;-75
2021/12/16 02:50:11;;;;;;;;;;;;;;;8.13;100.00;103515.75;5006505;28;19949;-75
2021/12/16 02:52:37;;;;;;;;;;;;;;;8.14;100.00;103511.53;5004272;28;19926;-75
2021/12/16 02:55:03;;;;;;;;;;;;;;;8.15;100.00;103505.63;5000358;28;20327;-75
2021/12/16 02:57:30;;;;;;;;;;;;;;;8.15;100.00;103511.66;4998364;28;19976;-75
2021/12/16 02:59:56;;;;;;;;;;;;;;;8.17;100.00;103506.63;5004584;28;20273;-75
2021/12/16 03:02:24;;;;;;;;;;;;;;;8.15;100.00;103503.97;5005337;28;19928;-75
2021/12/16 03:04:50;;;;;;;;;;;;;;;8.14;100.00;103507.31;5003993;28;20008;-75
2021/12/16 03:07:17;;;;;;;;;;;;;;;8.14;100.00;103497.06;5002261;28;19918;-75
2021/12/16 03:10:32;;;;;;;;;;;;;;;8.13;100.00;103508.06;5003271;28;20371;-75
2021/12/16 03:12:56;;;;;;;;;;;;;;;8.12;100.00;103510.50;5003624;28;20256;-75
2021/12/16 03:18:11;;;;;;;;;;;;;;;8.11;100.00;103504.47;5003971;28;19918;-75
2021/12/16 03:20:46;;;;;;;;;;;;;;;8.11;100.00;103503.59;5004440;28;20311;-76
2021/12/16 03:28:37;;;;;;;;;;;;;;;8.07;100.00;103512.72;5004893;28;20265;-75
2021/12/16 03:31:25;;;;;;;;;;;;;;;8.07;100.00;103505.03;5002352;28;19944;-75
2021/12/16 03:36:28;;;;;;;;;;;;;;;8.03;100.00;103503.88;5004029;28;19992;-75
2021/12/16 03:39:07;;;;;;;;;;;;;;;8.00;100.00;103506.16;5006940;28;20000;-75
2021/12/16 03:41:33;;;;;;;;;;;;;;;7.97;100.00;103500.81;5004261;28;19925;-75
2021/12/16 03:44:00;;;;;;;;;;;;;;;7.95;100.00;103504.03;5004988;28;20028;-75
2021/12/16 03:46:29;;;;;;;;;;;;;;;7.92;100.00;103508.91;5002170;28;20132;-75
2021/12/16 03:48:54;;;;;;;;;;;;;;;7.89;100.00;103522.38;5005363;28;20368;-75
2021/12/16 03:51:29;;;;;;;;;;;;;;;7.89;100.00;103524.94;5003326;28;19925;-75
2021/12/16 03:53:56;;;;;;;;;;;;;;;7.89;100.00;103521.47;5004119;28;20062;-75
2021/12/16 03:56:23;;;;;;;;;;;;;;;7.91;100.00;103531.06;5002870;28;19925;-75
2021/12/16 03:58:48;;;;;;;;;;;;;;;7.90;100.00;103530.94;5002761;28;20528;-75
2021/12/16 04:01:17;;;;;;;;;;;;;;;7.88;100.00;103523.13;5001742;28;19918;-74
2021/12/16 04:03:42;;;;;;;;;;;;;;;7.88;100.00;103533.34;5003971;28;19929;-74
2021/12/16 04:06:08;;;;;;;;;;;;;;;7.87;100.00;103530.69;5003811;28;20338;-74
2021/12/16 04:08:34;;;;;;;;;;;;;;;7.84;100.00;103528.78;5004301;28;19972;-74
2021/12/16 04:11:12;;;;;;;;;;;;;;;7.84;100.00;103538.13;5000710;28;19917;-74
2021/12/16 04:13:53;;;;;;;;;;;;;;;7.82;100.00;103532.84;5001915;28;19922;-74
2021/12/16 04:16:19;;;;;;;;;;;;;;;7.75;100.00;103523.78;5002004;28;19929;-74
2021/12/16 04:18:44;;;;;;;;;;;;;;;7.66;100.00;103524.72;5000507;28;19939;-74
2021/12/16 04:21:10;;;;;;;;;;;;;;;7.59;100.00;103530.09;5000169;28;19992;-75
2021/12/16 04:23:35;;;;;;;;;;;;;;;7.51;100.00;103525.22;5003173;28;19936;-74
2021/12/16 04:26:00;;;;;;;;;;;;;;;7.44;100.00;103516.91;5004002;28;20012;-75
2021/12/16 04:28:27;;;;;;;;;;;;;;;7.36;100.00;103517.94;5003318;28;19981;-75
2021/12/16 04:30:52;;;;;;;;;;;;;;;7.30;100.00;103526.00;5003085;28;19932;-75
2021/12/16 04:33:18;;;;;;;;;;;;;;;7.26;100.00;103523.94;5002529;28;20293;-76
2021/12/16 04:35:43;;;;;;;;;;;;;;;7.19;100.00;103521.66;5001707;28;19917;-76
2021/12/16 04:38:09;;;;;;;;;;;;;;;7.10;100.00;103515.75;4999650;28;19922;-76
2021/12/16 04:40:36;;;;;;;;;;;;;;;7.02;100.00;103516.75;5003246;28;20292;-76
2021/12/16 04:43:03;;;;;;;;;;;;;;;6.96;100.00;103524.81;5002909;28;19921;-76
2021/12/16 04:45:29;;;;;;;;;;;;;;;6.94;100.00;103518.69;4998388;28;19925;-76
2021/12/16 04:47:54;;;;;;;;;;;;;;;6.91;100.00;103516.75;5000474;28;19933;-76
2021/12/16 04:50:19;;;;;;;;;;;;;;;6.87;100.00;103521.50;5003264;28;20281;-76
2021/12/16 04:52:45;;;;;;;;;;;;;;;6.79;100.00;103525.03;5000716;28;20293;-76
2021/12/16 04:55:11;;;;;;;;;;;;;;;6.74;100.00;103529.78;5000469;28;19917;-75
2021/12/16 04:57:36;;;;;;;;;;;;;;;6.72;100.00;103531.28;5000628;28;19926;-76
2021/12/16 05:00:04;;;;;;;;;;;;;;;6.67;100.00;103533.47;5002378;28;19941;-75
2021/12/16 05:02:29;;;;;;;;;;;;;;;6.62;100.00;103532.16;5001188;28;19973;-76
2021/12/16 05:04:54;;;;;;;;;;;;;;;6.57;100.00;103520.66;5000556;28;19980;-76
2021/12/16 05:07:23;;;;;;;;;;;;;;;6.53;100.00;103530.47;4998737;28;19932;-76
2021/12/16 05:12:24;;;;;;;;;;;;;;;6.49;100.00;103534.41;5004872;28;20056;-76
2021/12/16 05:14:50;;;;;;;;;;;;;;;6.44;100.00;103535.69;5002745;28;20394;-76
2021/12/16 05:17:29;;;;;;;;;;;;;;;6.39;100.00;103535.28;4999804;28;19925;-75
2021/12/16 05:19:56;;;;;;;;;;;;;;;6.34;100.00;103535.63;5000253;28;20420;-74
2021/12/16 05:25:10;;;;;;;;;;;;;;;6.24;100.00;103536.47;5001276;28;19929;-74
2021/12/16 05:27:35;;;;;;;;;;;;;;;6.21;100.00;103550.66;5003010;28;19929;-74
2021/12/16 05:30:01;;;;;;;;;;;;;;;6.16;100.00;103550.25;5002443;28;19925;-74
2021/12/16 05:32:26;;;;;;;;;;;;;;;6.14;100.00;103551.78;5000704;28;20436;-75
2021/12/16 05:34:51;;;;;;;;;;;;;;;6.09;100.00;103542.78;4998286;28;19925;-75
2021/12/16 05:37:17;;;;;;;;;;;;;;;6.05;100.00;103546.72;5003944;28;19922;-75
2021/12/16 05:39:42;;;;;;;;;;;;;;;6.04;100.00;103554.25;5000696;28;20027;-74
2021/12/16 05:42:07;;;;;;;;;;;;;;;6.02;100.00;103560.91;5003099;28;19921;-74
2021/12/16 05:44:33;;;;;;;;;;;;;;;5.96;100.00;103561.25;4999926;28;19935;-75
2021/12/16 05:46:58;;;;;;;;;;;;;;;5.90;100.00;103565.75;4999537;28;19928;-75
2021/12/16 05:49:23;;;;;;;;;;;;;;;5.81;100.00;103555.59;5002357;28;20380;-74
2021/12/16 05:51:49;;;;;;;;;;;;;;;5.76;100.00;103564.50;4998921;28;19988;-74
2021/12/16 05:54:15;;;;;;;;;;;;;;;5.74;100.00;103570.22;5000363;28;20372;-74
2021/12/16 05:56:40;;;;;;;;;;;;;;;5.75;100.00;103569.47;5001885;28;20399;-74
2021/12/16 05:59:06;;;;;;;;;;;;;;;5.73;100.00;103571.00;5000770;28;19983;-74
2021/12/16 06:01:33;;;;;;;;;;;;;;;5.71;100.00;103585.28;4999749;28;20496;-74
2021/12/16 06:03:59;;;;;;;;;;;;;;;5.65;100.00;103594.19;4994685;28;19929;-74
2021/12/16 06:06:25;;;;;;;;;;;;;;;5.63;100.00;103599.88;5004411;28;20367;-74
2021/12/16 06:08:51;;;;;;;;;;;;;;;5.59;100.00;103591.06;5003061;28;19936;-75
2021/12/16 06:11:20;;;;;;;;;;;;;;;5.55;100.00;103585.53;5003241;28;20004;-74
2021/12/16 06:13:57;;;;;;;;;;;;;;;5.49;100.00;103592.63;5004730;28;19930;-74
2021/12/16 06:27:22;;;;;;;;;;;;;;;5.28;100.00;103597.56;5004216;28;20051;-74
2021/12/16 06:29:48;;;;;;;;;;;;;;;5.25;100.00;103604.00;5003077;28;19924;-75
2021/12/16 06:32:14;;;;;;;;;;;;;;;5.23;100.00;103598.78;5001059;28;20834;-74
2021/12/16 06:34:40;;;;;;;;;;;;;;;5.23;100.00;103605.53;5004998;28;19953;-74
2021/12/16 06:37:05;;;;;;;;;;;;;;;5.20;100.00;103606.13;5002645;28;20014;-74
2021/12/16 06:39:31;;;;;;;;;;;;;;;5.14;100.00;103605.56;5002088;28;20402;-73
2021/12/16 06:41:58;;;;;;;;;;;;;;;5.07;100.00;103609.19;5006789;28;19936;-74
2021/12/16 06:44:29;;;;;;;;;;;;;;;5.04;100.00;103602.91;5005893;28;19933;-74
2021/12/16 06:47:00;;;;;;;;;;;;;;;5.04;100.00;103608.91;5004819;28;20450;-74
2021/12/16 06:49:25;;;;;;;;;;;;;;;5.00;100.00;103604.25;5002879;28;19964;-74
2021/12/16 06:51:56;;;;;;;;;;;;;;;4.93;100.00;103601.00;5004483;28;20400;-74
2021/12/16 06:57:24;;;;;;;;;;;;;;;4.86;100.00;103604.63;4995924;28;19929;-75
2021/12/16 07:02:49;;;;;;;;;;;;;;;4.78;100.00;103621.72;5004834;28;20264;-73
2021/12/16 07:05:15;;;;;;;;;;;;;;;4.73;100.00;103624.56;5001501;28;20380;-74
2021/12/16 07:07:41;;;;;;;;;;;;;;;4.68;100.00;103619.06;5003108;28;19932;-73
2021/12/16 07:10:08;;;;;;;;;;;;;;;4.64;100.00;103632.25;5000762;28;19946;-73
2021/12/16 07:12:38;;;;;;;;;;;;;;;4.60;100.00;103631.81;5003330;28;19921;-74
2021/12/16 07:15:07;;;;;;;;;;;;;;;4.57;100.00;103632.44;5001972;28;19922;-74
2021/12/16 07:17:32;;;;;;;;;;;;;;;4.55;100.00;103639.00;5000610;28;19932;-74
2021/12/16 07:19:58;;;;;;;;;;;;;;;4.51;100.00;103636.94;5001442;28;19918;-74
2021/12/16 07:22:23;;;;;;;;;;;;;;;4.51;100.00;103642.03;5003391;28;19969;-74
2021/12/16 07:24:48;;;;;;;;;;;;;;;4.49;100.00;103651.16;4998954;28;19980;-74
2021/12/16 07:27:14;;;;;;;;;;;;;;;4.47;100.00;103666.28;5003278;28;19925;-74
2021/12/16 07:29:39;;;;;;;;;;;;;;;4.45;100.00;103665.25;5005550;28;20365;-73
2021/12/16 07:32:05;;;;;;;;;;;;;;;4.40;100.00;103663.91;5000169;28;19973;-74
2021/12/16 07:34:30;;;;;;;;;;;;;;;4.35;100.00;103659.09;5005888;28;20386;-73
2021/12/16 07:36:55;;;;;;;;;;;;;;;4.29;100.00;103660.31;5003985;28;19930;-74
2021/12/16 07:39:29;;;;;;;;;;;;;;;4.26;100.00;103672.75;4999983;28;19922;-74
2021/12/16 07:41:56;;;;;;;;;;;;;;;4.26;100.00;103676.94;5001835;28;20039;-74
2021/12/16 07:44:22;;;;;;;;;;;;;;;4.24;100.00;103689.50;5002230;28;19939;-72
2021/12/16 07:46:53;;;;;;;;;;;;;;;4.19;100.00;103688.19;5002642;28;19918;-74
2021/12/16 07:49:27;;;;;;;;;;;;;;;4.22;100.00;103697.75;5002253;28;19928;-74
2021/12/16 07:51:53;;;;;;;;;;;;;;;4.21;100.00;103711.25;5003091;28;19957;-75
2021/12/16 07:54:19;;;;;;;;;;;;;;;4.22;100.00;103713.94;5003011;28;19993;-74
2021/12/16 07:56:45;;;;;;;;;;;;;;;4.29;100.00;103726.53;5006307;28;20296;-74
2021/12/16 07:59:11;;;;;;;;;;;;;;;4.34;100.00;103723.53;5006906;28;19956;-74
2021/12/16 08:01:37;;;;;;;;;;;;;;;4.37;100.00;103716.19;5002503;28;19977;-74
2021/12/16 08:04:03;;;;;;;;;;;;;;;4.42;100.00;103715.00;5003929;28;19976;-73
2021/12/16 08:06:29;;;;;;;;;;;;;;;4.42;100.00;103715.00;5004454;28;19921;-73
2021/12/16 08:09:03;;;;;;;;;;;;;;;4.43;100.00;103722.81;5003306;28;19928;-73
2021/12/16 08:11:30;;;;;;;;;;;;;;;4.43;100.00;103719.34;5001789;28;19925;-74
2021/12/16 08:13:55;;;;;;;;;;;;;;;4.42;100.00;103722.66;5001578;28;19918;-73
2021/12/16 08:16:22;;;;;;;;;;;;;;;4.43;100.00;103738.09;5003734;28;19968;-74
2021/12/16 08:18:51;;;;;;;;;;;;;;;4.53;100.00;103742.44;5002973;28;20005;-75
2021/12/16 08:21:17;;;;;;;;;;;;;;;4.62;100.00;103737.38;5002659;28;20312;-74
2021/12/16 08:23:43;;;;;;;;;;;;;;;4.73;100.00;103742.75;5001255;28;19960;-74
2021/12/16 08:26:08;;;;;;;;;;;;;;;4.83;100.00;103744.53;5002946;28;20012;-73
2021/12/16 08:28:34;;;;;;;;;;;;;;;4.91;100.00;103742.72;5003300;28;19951;-74
2021/12/16 08:31:00;;;;;;;;;;;;;;;4.98;100.00;103738.38;5001068;28;19968;-73
2021/12/16 08:33:25;;;;;;;;;;;;;;;5.07;100.00;103738.34;5000710;28;19976;-74
2021/12/16 08:35:52;;;;;;;;;;;;;;;5.17;100.00;103756.34;5002508;28;19965;-75
2021/12/16 08:38:19;;;;;;;;;;;;;;;5.24;100.00;103766.38;5001459;28;19971;-73
2021/12/16 08:40:45;;;;;;;;;;;;;;;5.28;100.00;103754.84;5002903;28;20041;-73
2021/12/16 08:43:11;;;;;;;;;;;;;;;5.36;100.00;103749.69;4998693;28;19929;-74
2021/12/16 08:45:37;;;;;;;;;;;;;;;5.50;100.00;103761.22;5002147;28;19921;-73
2021/12/16 08:48:03;;;;;;;;;;;;;;;5.60;100.00;103770.66;4999868;28;19940;-74
2021/12/16 08:50:30;;;;;;;;;;;;;;;5.73;100.00;103770.16;4999890;28;19929;-73
2021/12/16 08:52:56;;;;;;;;;;;;;;;5.88;100.00;103774.13;5004828;28;20367;-73
2021/12/16 08:55:21;;;;;;;;;;;;;;;5.98;100.00;103781.03;5002150;28;19930;-73
2021/12/16 08:57:46;;;;;;;;;;;;;;;6.02;100.00;103785.69;5000863;28;19925;-73
2021/12/16 09:00:15;;;;;;;;;;;;;;;6.05;100.00;103786.84;4999865;28;20743;-74
2021/12/16 09:02:40;;;;;;;;;;;;;;;6.13;100.00;103785.03;5001114;28;19921;-73
2021/12/16 09:05:06;;;;;;;;;;;;;;;6.19;100.00;103777.91;5002874;28;20252;-74
2021/12/16 09:07:31;;;;;;;;;;;;;;;6.23;100.00;103794.41;4999631;28;21435;-73
2021/12/16 09:09:58;;;;;;;;;;;;;;;6.18;100.00;103793.97;5003129;28;19926;-74
2021/12/16 09:15:05;;;;;;;;;;;;;;;6.43;100.00;103800.63;5003458;28;19918;-72
2021/12/16 09:17:30;;;;;;;;;;;;;;;6.49;100.00;103802.81;5002121;28;19917;-74
2021/12/16 09:19:56;;;;;;;;;;;;;;;6.63;100.00;103797.31;4999582;28;19929;-74
2021/12/16 09:22:23;;;;;;;;;;;;;;;6.86;100.00;103796.84;4998119;28;19945;-74
2021/12/16 09:24:48;;;;;;;;;;;;;;;7.04;100.00;103791.53;5002751;28;19952;-74
2021/12/16 09:27:15;;;;;;;;;;;;;;;7.18;100.00;103797.13;5000564;28;20372;-73
2021/12/16 09:29:41;;;;;;;;;;;;;;;7.40;100.00;103792.25;5005387;28;19917;-73
2021/12/16 09:32:07;;;;;;;;;;;;;;;7.63;100.00;103795.91;5004082;28;20281;-73
2021/12/16 09:34:33;;;;;;;;;;;;;;;7.77;100.00;103795.44;5001766;28;19995;-74
2021/12/16 09:36:58;;;;;;;;;;;;;;;7.84;100.00;103796.88;4999222;28;20360;-73
2021/12/16 09:39:25;;;;;;;;;;;;;;;7.98;100.00;103804.97;5001683;28;19917;-73
2021/12/16 09:41:51;;;;;;;;;;;;;;;8.07;100.00;103813.44;4990802;28;19933;-73
2021/12/16 09:44:17;;;;;;;;;;;;;;;8.27;100.00;103798.84;5005998;28;19925;-73
2021/12/16 09:46:44;;;;;;;;;;;;;;;8.63;100.00;103800.16;5007431;28;19929;-73
2021/12/16 09:49:10;;;;;;;;;;;;;;;9.03;100.00;103796.59;5006071;28;19925;-73
2021/12/16 09:51:36;;;;;;;;;;;;;;;9.44;100.00;103793.88;5005838;28;20755;-73
2021/12/16 09:54:05;;;;;;;;;;;;;;;10.02;100.00;103789.06;5005083;28;20376;-74
2021/12/16 09:56:33;;;;;;;;;;;;;;;10.70;100.00;103785.69;5004890;28;20384;-75
2021/12/16 09:59:01;;;;;;;;;;;;;;;11.10;97.36;103798.91;4989403;28;20435;-74
2021/12/16 10:01:27;;;;;;;;;;;;;;;10.73;98.97;103806.47;5005256;28;19926;-74
2021/12/16 10:03:57;;;;;;;;;;;;;;;10.54;100.00;103802.44;5005888;28;20325;-73
2021/12/16 10:06:22;;;;;;;;;;;;;;;11.54;100.00;103793.47;5003349;28;21667;-74
2021/12/16 10:08:48;;;;;;;;;;;;;;;12.83;99.56;103787.66;5005515;28;19921;-73
2021/12/16 10:11:15;;;;;;;;;;;;;;;13.75;99.66;103799.59;5006182;28;20011;-73
2021/12/16 10:13:47;;;;;;;;;;;;;;;14.54;99.21;103795.75;5005552;28;19924;-74
2021/12/16 10:18:58;;;;;;;;;;;;;;;15.41;93.37;103782.56;5006228;28;19940;-74
2021/12/16 10:21:24;;;;;;;;;;;;;;;15.93;88.68;103787.97;5002682;28;19926;-74
2021/12/16 10:23:50;;;;;;;;;;;;;;;16.74;90.06;103784.31;5005008;28;20049;-74
2021/12/16 10:26:17;;;;;;;;;;;;;;;16.75;82.47;103767.03;5005278;28;19936;-75
2021/12/16 10:28:44;;;;;;;;;;;;;;;16.65;81.06;103777.75;5000836;28;19929;-74
2021/12/16 10:31:09;;;;;;;;;;;;;;;17.19;85.64;103786.47;5004180;28;19922;-73
2021/12/16 10:33:35;;;;;;;;;;;;;;;17.25;85.03;103784.16;5003221;28;20390;-74
2021/12/16 10:36:04;;;;;;;;;;;;;;;17.65;85.48;103787.78;5003867;28;20008;-75
2021/12/16 10:38:33;;;;;;;;;;;;;;;18.91;83.14;103785.38;5004679;28;19917;-74
2021/12/16 10:40:58;;;;;;;;;;;;;;;20.08;81.44;103778.50;5005431;28;19917;-75
2021/12/16 10:43:32;;;;;;;;;;;;;;;20.96;74.56;103777.09;5002016;28;19928;-75
2021/12/16 10:46:04;;;;;;;;;;;;;;;21.75;69.07;103782.09;5004386;28;19968;-75
2021/12/16 10:48:33;;;;;;;;;;;;;;;22.36;58.55;103778.50;5002714;28;19991;-75
2021/12/16 10:51:04;;;;;;;;;;;;;;;22.71;71.74;103783.75;5003250;28;19917;-74
2021/12/16 10:53:48;;;;;;;;;;;;;;;23.02;55.38;103788.00;5001781;28;20020;-75
2021/12/16 10:56:14;;;;;;;;;;;;;;;23.10;54.88;103791.66;5001066;28;19917;-75
2021/12/16 10:58:45;;;;;;;;;;;;;;;23.25;54.28;103794.66;5005697;28;19922;-76
2021/12/16 11:01:30;;;;;;;;;;;;;;;23.45;62.39;103792.44;5002391;28;19917;-75
2021/12/16 11:03:56;;;;;;;;;;;;;;;23.77;64.44;103797.47;5000626;28;19983;-75
2021/12/16 11:06:27;;;;;;;;;;;;;;;24.15;51.43;103792.09;5005199;28;20471;-75
2021/12/16 11:08:52;;;;;;;;;;;;;;;24.33;59.41;103801.19;5004693;28;19980;-75
2021/12/16 11:11:26;;;;;;;;;;;;;;;24.66;61.33;103799.09;5000445;28;20043;-75
2021/12/16 11:14:00;;;;;;;;;;;;;;;24.98;57.28;103792.56;5005499;28;19918;-75
2021/12/16 11:16:30;;;;;;;;;;;;;;;25.17;55.13;103800.75;5005450;28;20131;-75
2021/12/16 11:18:55;;;;;;;;;;;;;;;25.18;55.79;103803.44;5003416;28;20542;-76
2021/12/16 11:21:21;;;;;;;;;;;;;;;25.66;61.10;103802.25;5003961;28;19930;-76
2021/12/16 11:23:50;;;;;;;;;;;;;;;25.84;54.79;103796.34;5005426;28;19922;-76
2021/12/16 11:26:20;;;;;;;;;;;;;;;24.78;60.38;103791.41;5004663;28;19940;-76
2021/12/16 11:28:50;;;;;;;;;;;;;;;23.27;60.18;103794.66;5004491;28;20383;-76
2021/12/16 11:31:23;;;;;;;;;;;;;;;21.66;60.26;103798.44;5004445;28;19922;-77
2021/12/16 11:33:58;;;;;;;;;;;;;;;20.50;60.83;103804.34;5000024;28;19925;-75
2021/12/16 11:36:25;;;;;;;;;;;;;;;19.60;67.50;103804.63;5003166;28;20020;-77
2021/12/16 11:38:54;;;;;;;;;;;;;;;18.86;69.43;103792.13;5003705;28;19924;-75
2021/12/16 11:41:35;;;;;;;;;;;;;;;18.14;65.11;103797.81;5004495;28;19924;-76
2021/12/16 11:44:02;;;;;;;;;;;;;;;17.51;70.17;103799.25;5002463;28;20351;-76
2021/12/16 11:46:28;;;;;;;;;;;;;;;17.00;71.37;103789.91;5006805;28;20702;-75
2021/12/16 11:48:59;;;;;;;;;;;;;;;16.54;70.51;103795.41;5002483;28;19946;-75
2021/12/16 11:51:34;;;;;;;;;;;;;;;16.19;71.05;103793.59;5002451;28;19936;-77
2021/12/16 11:54:01;;;;;;;;;;;;;;;15.90;70.90;103781.72;5002584;28;19971;-76
2021/12/16 11:56:41;;;;;;;;;;;;;;;15.58;72.01;103786.03;5004966;28;19921;-76
2021/12/16 11:59:07;;;;;;;;;;;;;;;15.29;76.22;103789.66;5006929;28;19932;-75
2021/12/16 12:01:32;;;;;;;;;;;;;;;15.08;74.36;103786.75;5008625;28;19918;-73
2021/12/16 12:04:06;;;;;;;;;;;;;;;14.91;74.91;103777.13;5008521;28;19979;-75
2021/12/16 12:06:32;;;;;;;;;;;;;;;14.69;75.05;103775.94;5007875;28;19986;-75
2021/12/16 12:08:58;;;;;;;;;;;;;;;14.41;74.71;103781.16;5010911;28;20704;-74
2021/12/16 12:11:26;;;;;;;;;;;;;;;14.16;77.41;103777.94;5007681;28;19920;-74
2021/12/16 12:13:56;;;;;;;;;;;;;;;13.92;76.22;103786.00;5008599;28;19917;-75
2021/12/16 12:16:33;;;;;;;;;;;;;;;13.63;77.55;103778.16;5009520;28;20296;-74
2021/12/16 12:19:08;;;;;;;;;;;;;;;13.41;78.82;103781.09;5008703;28;20311;-75
2021/12/16 12:21:40;;;;;;;;;;;;;;;13.20;77.79;103775.41;5009779;28;19918;-75
2021/12/16 12:24:08;;;;;;;;;;;;;;;13.05;81.18;103770.19;5008581;28;20376;-74
2021/12/16 12:26:36;;;;;;;;;;;;;;;12.97;80.84;103773.06;5007971;28;19917;-74
2021/12/16 12:29:06;;;;;;;;;;;;;;;12.80;79.36;103771.94;5009475;28;19921;-75
2021/12/16 12:31:33;;;;;;;;;;;;;;;12.64;81.81;103777.81;5010382;28;20419;-75
2021/12/16 12:33:59;;;;;;;;;;;;;;;12.53;80.19;103766.78;5008113;28;19914;-75
2021/12/16 12:36:24;;;;;;;;;;;;;;;12.44;80.91;103767.88;5008023;28;19925;-75
2021/12/16 12:38:51;;;;;;;;;;;;;;;12.39;81.81;103774.41;5008004;28;19922;-74
2021/12/16 12:41:16;;;;;;;;;;;;;;;12.32;82.10;103765.38;5009268;28;19922;-75
2021/12/16 12:43:42;;;;;;;;;;;;;;;12.31;82.14;103768.72;5009192;28;19979;-75
2021/12/16 12:46:08;;;;;;;;;;;;;;;12.27;82.83;103765.03;5009110;28;20016;-76
2021/12/16 12:48:34;;;;;;;;;;;;;;;12.31;82.97;103768.72;5008223;28;19929;-75
2021/12/16 12:51:01;;;;;;;;;;;;;;;12.41;85.34;103773.72;5009418;28;19921;-75
2021/12/16 12:53:36;;;;;;;;;;;;;;;12.46;83.87;103771.44;5010547;28;19956;-75
2021/12/16 12:56:30;;;;;;;;;;;;;;;12.48;85.14;103780.16;5007053;28;20007;-75
2021/12/16 12:58:55;;;;;;;;;;;;;;;12.53;85.40;103777.09;4998518;28;19917;-74
2021/12/16 13:01:39;;;;;;;;;;;;;;;12.41;83.76;103778.88;5008054;28;19928;-75
2021/12/16 13:04:14;;;;;;;;;;;;;;;12.34;84.77;103771.50;5008567;28;19953;-75
2021/12/16 13:06:46;;;;;;;;;;;;;;;12.28;85.04;103777.16;5005209;28;19964;-75
2021/12/16 13:09:30;;;;;;;;;;;;;;;12.23;84.67;103767.31;5006098;28;20412;-74
2021/12/16 13:11:56;;;;;;;;;;;;;;;12.19;84.59;103755.88;4995140;28;19965;-76
2021/12/16 13:14:36;;;;;;;;;;;;;;;12.16;84.36;103766.00;4985667;28;20076;-76
2021/12/16 13:17:32;;;;;;;;;;;;;;;12.12;84.63;103764.00;5003428;28;19921;-75
2021/12/16 13:28:32;;;;;;;;;;;;;;;12.04;85.87;103768.66;5007528;28;19996;-75
2021/12/16 13:31:03;;;;;;;;;;;;;;;12.01;85.38;103771.03;5006065;28;19921;-76
2021/12/16 13:33:40;;;;;;;;;;;;;;;11.98;85.49;103768.22;5007843;28;20264;-75
2021/12/16 13:36:15;;;;;;;;;;;;;;;11.94;85.29;103780.78;5007728;28;19959;-77
2021/12/16 13:38:42;;;;;;;;;;;;;;;11.92;85.93;103780.69;5007631;28;19980;-75
2021/12/16 13:41:11;;;;;;;;;;;;;;;11.89;87.09;103771.84;5005162;28;19917;-76
2021/12/16 13:43:38;;;;;;;;;;;;;;;11.91;86.64;103780.59;5008246;28;19960;-76
2021/12/16 13:48:56;;;;;;;;;;;;;;;11.87;86.53;103776.00;5004566;28;19971;-74
2021/12/16 14:05:20;;;;;;;;;;;;;;;11.66;86.69;103786.59;5002837;28;19918;-75
2021/12/16 14:07:58;;;;;;;;;;;;;;;11.63;87.17;103786.38;5005831;28;19925;-75
2021/12/16 14:10:42;;;;;;;;;;;;;;;11.60;87.38;103785.28;5006761;28;19967;-74
2021/12/16 14:17:10;;;;;;;;;;;;;;;11.51;87.60;103795.81;5006128;28;20008;-76
2021/12/16 14:25:22;;;;;;;;;;;;;;;11.35;87.99;103800.69;5006600;28;19988;-75
2021/12/16 14:38:37;;;;;;;;;;;;;;;10.96;88.20;103803.03;5008154;28;19945;-75
2021/12/16 14:41:35;;;;;;;;;;;;;;;10.89;88.23;103799.91;5009631;28;20648;-75
2021/12/16 14:46:44;;;;;;;;;;;;;;;10.76;88.43;103810.97;5010594;28;19945;-76
2021/12/16 14:49:09;;;;;;;;;;;;;;;10.72;88.51;103820.13;5008379;28;20233;-76
2021/12/16 14:51:34;;;;;;;;;;;;;;;10.70;88.77;103820.81;5008654;28;19933;-75
2021/12/16 14:54:00;;;;;;;;;;;;;;;10.66;88.60;103822.25;5009944;28;20386;-75
2021/12/16 14:56:28;;;;;;;;;;;;;;;10.67;89.08;103826.63;5010625;28;19959;-75
2021/12/16 14:58:55;;;;;;;;;;;;;;;10.66;89.16;103827.41;5010195;28;19944;-76
2021/12/16 15:01:23;;;;;;;;;;;;;;;10.64;89.42;103821.25;5009372;28;20295;-75
2021/12/16 15:03:49;;;;;;;;;;;;;;;10.62;89.26;103814.22;5010820;28;20578;-76
2021/12/16 15:06:19;;;;;;;;;;;;;;;10.61;89.66;103826.16;5010000;28;20376;-76
2021/12/16 15:08:53;;;;;;;;;;;;;;;10.60;89.81;103820.91;5008133;28;19937;-76
2021/12/16 15:11:29;;;;;;;;;;;;;;;10.56;89.66;103808.59;5010047;28;19917;-75
2021/12/16 15:13:59;;;;;;;;;;;;;;;10.54;89.87;103812.72;5005123;28;19925;-76
2021/12/16 15:16:44;;;;;;;;;;;;;;;10.49;89.75;103807.22;5007437;28;20056;-75
2021/12/16 15:36:32;;;;;;;;;;;;;;;10.23;90.97;103823.25;5006140;28;19987;-77
2021/12/16 15:39:43;;;;;;;;;;;;;;;10.23;90.97;103835.19;5007600;28;19925;-77
2021/12/16 15:44:22;;;;;;;;;;;;;;;10.17;91.34;103823.66;5009413;28;19952;-75
2021/12/16 15:46:48;;;;;;;;;;;;;;;10.16;91.45;103831.25;5009297;28;20269;-74
2021/12/16 15:49:14;;;;;;;;;;;;;;;10.11;91.37;103830.91;5005968;28;19963;-76
2021/12/16 15:51:39;;;;;;;;;;;;;;;10.09;91.77;103841.84;5005276;28;19964;-77
2021/12/16 15:54:06;;;;;;;;;;;;;;;10.08;91.91;103845.22;4999543;28;23423;-76
2021/12/16 15:56:34;;;;;;;;;;;;;;;10.08;92.04;103845.22;5008809;28;19928;-76
2021/12/16 15:59:19;;;;;;;;;;;;;;;10.08;92.01;103847.78;5004453;28;19925;-77
2021/12/16 16:01:49;;;;;;;;;;;;;;;10.07;92.04;103854.59;5007496;28;19918;-77
2021/12/16 16:04:18;;;;;;;;;;;;;;;10.05;92.02;103856.13;4992594;28;19960;-76
2021/12/16 16:06:44;;;;;;;;;;;;;;;10.04;92.18;103851.78;5009705;28;19980;-77
2021/12/16 16:09:12;;;;;;;;;;;;;;;10.04;92.02;103871.44;5006174;28;19940;-77
2021/12/16 16:11:45;;;;;;;;;;;;;;;10.00;91.96;103867.72;5005394;28;19964;-76
2021/12/16 16:14:10;;;;;;;;;;;;;;;10.00;92.29;103872.88;5003602;28;19917;-76
2021/12/16 16:16:43;;;;;;;;;;;;;;;9.98;92.34;103874.44;4996725;28;19926;-76
2021/12/16 16:19:09;;;;;;;;;;;;;;;9.98;92.56;103871.84;5007716;28;20388;-76
2021/12/16 16:21:34;;;;;;;;;;;;;;;9.99;92.64;103872.75;5006732;28;19926;-76
2021/12/16 16:24:04;;;;;;;;;;;;;;;9.97;92.84;103872.63;5005961;28;19991;-77
2021/12/16 16:26:31;;;;;;;;;;;;;;;9.96;92.79;103865.72;5007920;28;19917;-76
2021/12/16 16:29:01;;;;;;;;;;;;;;;9.96;92.71;103872.53;5005972;28;19922;-75
2021/12/16 16:31:28;;;;;;;;;;;;;;;9.93;92.63;103881.78;4983583;28;19925;-75